Aviation Digital Data Service (ADDS)

Output produced by TAFs form (1517 UTC 22 June 2018)
found at http://aviationweather.gov/adds/tafs/
 
KRDG 221454Z 10005KT 10SM SCT024 OVC030 22/18 A2995 RMK AO2 SLP145 T02220178 53007
KRDG 221459Z 2215/2312 09010KT P6SM VCSH OVC030 
     FM221800 10008KT P6SM VCSH BKN040 
     FM230000 09009KT P6SM OVC025 
     FM230400 09006KT P6SM OVC015 
     FM230800 08008KT 6SM -SHRA OVC009
       
KABE 221451Z 06007KT 10SM OVC024 22/15 A2999 RMK AO2 SLP153 T02170150 53006
KABE 221500Z 2215/2312 08007KT P6SM OVC025 
     FM221800 12007KT P6SM VCSH OVC050 
     FM222300 08008KT P6SM OVC025 
     FM230600 08008KT P6SM OVC012 
     FM231000 08008KT P6SM OVC009
       
KPNE 221454Z 10015G20KT 10SM BKN021 BKN120 22/16 A3000 RMK AO2 SLP158 T02220161 53011
KPNE 221507Z 2215/2312 09012G18KT P6SM VCSH BKN020 OVC050 
     FM230000 08010KT P6SM OVC015 
     FM230500 08009KT P6SM OVC009 
     FM230700 08009KT 6SM -SHRA OVC008